createdAt,value
2024-04-25T00:00:39.017Z,6.43
2024-04-25T00:03:06.683Z,6.97
2024-04-25T00:05:33.733Z,6.30
2024-04-25T00:08:00.698Z,6.22
2024-04-25T00:10:27.614Z,6.63
2024-04-25T00:12:54.533Z,6.18
2024-04-25T00:15:21.429Z,6.75
2024-04-25T00:17:48.382Z,5.75
2024-04-25T00:20:15.485Z,5.90
2024-04-25T00:22:42.387Z,5.65
2024-04-25T00:25:09.314Z,6.28
2024-04-25T00:27:36.241Z,5.82
2024-04-25T00:30:03.404Z,6.30
2024-04-25T00:32:32.260Z,6.22
2024-04-25T00:34:59.325Z,5.78
2024-04-25T00:37:26.741Z,6.32
2024-04-25T00:39:56.164Z,5.85
2024-04-25T00:42:24.407Z,5.93
2024-04-25T00:44:51.555Z,7.05
2024-04-25T00:47:21.193Z,6.07
2024-04-25T00:49:49.682Z,5.88
2024-04-25T00:52:19.673Z,5.60
2024-04-25T00:54:47.133Z,5.68
2024-04-25T00:57:15.798Z,6.63
2024-04-25T00:59:47.168Z,5.85
2024-04-25T01:02:16.531Z,6.07
2024-04-25T01:04:44.601Z,5.70
2024-04-25T01:07:11.549Z,5.90
2024-04-25T01:09:38.474Z,5.55
2024-04-25T01:12:06.193Z,5.60
2024-04-25T01:14:33.544Z,6.55
2024-04-25T01:17:00.688Z,5.88
2024-04-25T01:19:27.653Z,6.32
2024-04-25T01:21:54.657Z,5.88
2024-04-25T01:24:30.762Z,6.13
2024-04-25T01:26:58.282Z,6.18
2024-04-25T01:29:25.584Z,6.20
2024-04-25T01:31:53.803Z,5.80
2024-04-25T01:34:20.947Z,6.85
2024-04-25T01:36:47.964Z,7.63
2024-04-25T01:39:15.041Z,7.40
2024-04-25T01:41:42.314Z,7.28
2024-04-25T01:44:09.297Z,6.68
2024-04-25T01:46:36.776Z,7.18
2024-04-25T01:49:03.830Z,6.45
2024-04-25T01:51:31.799Z,6.38
2024-04-25T01:53:58.724Z,6.15
2024-04-25T01:56:25.701Z,6.53
2024-04-25T01:58:54.307Z,6.63
2024-04-25T02:01:21.406Z,7.13
2024-04-25T02:03:48.941Z,6.93
2024-04-25T02:06:16.014Z,7.30
2024-04-25T02:08:43.035Z,7.30
2024-04-25T02:11:10.067Z,6.47
2024-04-25T02:13:37.268Z,6.72
2024-04-25T02:16:04.395Z,6.50
2024-04-25T02:18:31.379Z,5.90
2024-04-25T02:21:17.311Z,6.35
2024-04-25T02:24:03.192Z,6.03
2024-04-25T02:26:30.103Z,5.55
2024-04-25T02:28:57.034Z,5.65
2024-04-25T02:31:29.711Z,5.95
2024-04-25T02:33:56.631Z,6.32
2024-04-25T02:36:23.505Z,5.55
2024-04-25T02:38:50.386Z,5.75
2024-04-25T02:41:17.403Z,6.57
2024-04-25T02:43:44.399Z,5.72
2024-04-25T02:46:11.433Z,5.95
2024-04-25T02:48:38.514Z,5.60
2024-04-25T02:51:05.672Z,6.75
2024-04-25T02:53:32.817Z,5.60
2024-04-25T02:56:00.185Z,6.15
2024-04-25T02:58:27.422Z,5.70
2024-04-25T03:01:02.376Z,5.40
2024-04-25T03:03:29.671Z,5.55
2024-04-25T03:05:57.209Z,6.07
2024-04-25T03:08:24.152Z,5.60
2024-04-25T03:10:51.603Z,5.47
2024-04-25T03:13:18.482Z,6.28
2024-04-25T03:15:45.400Z,4.97
2024-04-25T03:18:12.406Z,5.63
2024-04-25T03:20:39.480Z,5.85
2024-04-25T03:23:06.507Z,5.75
2024-04-25T03:25:34.359Z,5.75
2024-04-25T03:28:01.322Z,4.72
2024-04-25T03:30:28.277Z,5.25
2024-04-25T03:32:55.291Z,4.95
2024-04-25T03:35:22.313Z,5.32
2024-04-25T03:37:49.371Z,5.60
2024-04-25T03:40:16.245Z,4.85
2024-04-25T03:42:43.169Z,5.00
2024-04-25T03:45:10.045Z,5.03
2024-04-25T03:47:37.118Z,4.32
2024-04-25T03:50:04.318Z,4.80
2024-04-25T03:52:31.376Z,4.93
2024-04-25T03:54:58.234Z,4.15
2024-04-25T03:57:25.123Z,5.10
2024-04-25T03:59:52.072Z,4.47
2024-04-25T04:02:19.002Z,4.82
2024-04-25T04:04:45.946Z,4.68
2024-04-25T04:07:12.830Z,4.60
2024-04-25T04:09:40.707Z,5.72
2024-04-25T04:12:07.664Z,5.38
2024-04-25T04:14:35.443Z,4.57
2024-04-25T04:17:02.384Z,4.70
2024-04-25T04:19:29.407Z,4.78
2024-04-25T04:21:56.275Z,5.13
2024-04-25T04:24:23.186Z,5.50
2024-04-25T04:26:50.096Z,5.38
2024-04-25T04:29:17.250Z,5.55
2024-04-25T04:31:44.243Z,5.40
2024-04-25T04:34:11.170Z,6.03
2024-04-25T04:36:38.310Z,5.88
2024-04-25T04:39:06.468Z,5.85
2024-04-25T04:41:33.755Z,6.30
2024-04-25T04:44:00.661Z,5.90
2024-04-25T04:46:27.768Z,5.63
2024-04-25T04:48:54.738Z,5.78
2024-04-25T04:51:21.791Z,6.05
2024-04-25T04:53:49.513Z,5.25
2024-04-25T04:56:16.739Z,6.18
2024-04-25T04:58:43.821Z,6.15
2024-04-25T05:01:11.302Z,5.57
2024-04-25T05:03:38.346Z,6.30
2024-04-25T05:06:09.037Z,6.03
2024-04-25T05:08:37.786Z,5.80
2024-04-25T05:11:05.158Z,6.15
2024-04-25T05:13:32.027Z,6.63
2024-04-25T05:15:58.935Z,6.30
2024-04-25T05:18:25.869Z,6.35
2024-04-25T05:20:52.863Z,6.35
2024-04-25T05:23:19.803Z,6.10
2024-04-25T05:25:46.690Z,5.93
2024-04-25T05:28:13.594Z,7.28
2024-04-25T05:30:40.477Z,6.45
2024-04-25T05:33:08.607Z,6.57
2024-04-25T05:35:35.809Z,6.65
2024-04-25T05:38:02.948Z,5.53
2024-04-25T05:40:32.952Z,6.20
2024-04-25T05:42:59.833Z,5.72
2024-04-25T05:45:26.742Z,5.97
2024-04-25T05:47:53.793Z,5.88
2024-04-25T05:50:20.796Z,5.63
2024-04-25T05:52:47.692Z,5.95
2024-04-25T05:55:16.198Z,5.88
2024-04-25T05:57:43.163Z,5.40
2024-04-25T06:00:10.926Z,5.50
2024-04-25T06:02:38.004Z,5.78
2024-04-25T06:05:05.184Z,5.25
2024-04-25T06:07:32.062Z,5.60
2024-04-25T06:09:58.959Z,6.07
2024-04-25T06:12:25.921Z,5.30
2024-04-25T06:14:52.995Z,5.80
2024-04-25T06:17:19.974Z,6.45
2024-04-25T06:19:49.710Z,6.35
2024-04-25T06:22:16.597Z,5.75
2024-04-25T06:24:43.540Z,6.07
2024-04-25T06:27:10.458Z,6.25
2024-04-25T06:29:37.417Z,7.47
2024-04-25T06:32:04.805Z,6.88
2024-04-25T06:34:31.970Z,7.32
2024-04-25T06:37:00.785Z,7.10
2024-04-25T06:39:27.821Z,7.07
2024-04-25T06:41:58.761Z,6.97
2024-04-25T06:44:31.566Z,8.13
2024-04-25T06:47:03.383Z,7.40
2024-04-25T06:49:30.398Z,6.15
2024-04-25T06:51:57.306Z,6.75
2024-04-25T06:54:26.324Z,6.82
2024-04-25T06:56:55.015Z,6.22
2024-04-25T06:59:22.010Z,6.43
2024-04-25T07:01:51.083Z,6.15
2024-04-25T07:04:18.354Z,6.20
2024-04-25T07:06:45.323Z,5.85
2024-04-25T07:09:12.271Z,5.43
2024-04-25T07:11:39.279Z,5.38
2024-04-25T07:14:06.309Z,5.40
2024-04-25T07:16:33.234Z,5.38
2024-04-25T07:19:00.224Z,5.45
2024-04-25T07:21:30.388Z,6.25
2024-04-25T07:23:59.126Z,6.28
2024-04-25T07:26:28.100Z,5.70
2024-04-25T07:28:56.618Z,5.80
2024-04-25T07:31:24.403Z,6.15
2024-04-25T07:33:51.469Z,5.60
2024-04-25T07:36:22.360Z,5.72
2024-04-25T07:38:49.530Z,5.32
2024-04-25T07:41:16.609Z,5.75
2024-04-25T07:43:43.625Z,5.07
2024-04-25T07:46:14.036Z,5.70
2024-04-25T07:48:41.902Z,5.03
2024-04-25T07:51:09.021Z,5.60
2024-04-25T07:53:36.294Z,4.95
2024-04-25T07:56:03.671Z,5.13
2024-04-25T07:58:30.588Z,5.40
2024-04-25T08:00:57.673Z,5.03
2024-04-25T08:03:26.336Z,4.93
2024-04-25T08:05:54.472Z,5.82
2024-04-25T08:08:25.986Z,4.93
2024-04-25T08:10:53.704Z,4.43
2024-04-25T08:13:20.743Z,4.43
2024-04-25T08:15:47.823Z,4.68
2024-04-25T08:18:14.892Z,4.20
2024-04-25T08:20:42.033Z,4.65
2024-04-25T08:23:09.173Z,4.32
2024-04-25T08:25:36.151Z,3.92
2024-04-25T08:28:03.150Z,4.32
2024-04-25T08:30:30.164Z,4.00
2024-04-25T08:32:57.399Z,4.47
2024-04-25T08:35:24.487Z,4.10
2024-04-25T08:37:51.549Z,3.80
2024-04-25T08:40:18.593Z,3.95
2024-04-25T08:42:51.224Z,3.50
2024-04-25T08:45:18.507Z,3.70
2024-04-25T08:47:46.713Z,3.60
2024-04-25T08:50:17.978Z,3.70
2024-04-25T08:52:47.452Z,3.58
2024-04-25T08:55:15.207Z,3.90
2024-04-25T08:57:42.142Z,3.72
2024-04-25T09:00:09.371Z,3.53
2024-04-25T09:02:37.006Z,3.50
2024-04-25T09:05:05.232Z,3.90
2024-04-25T09:07:32.158Z,3.67
2024-04-25T09:09:59.101Z,3.63
2024-04-25T09:12:33.385Z,3.97
2024-04-25T09:15:00.622Z,4.15
2024-04-25T09:17:28.048Z,4.03
2024-04-25T09:19:57.553Z,3.95
2024-04-25T09:22:24.595Z,3.33
2024-04-25T09:24:53.096Z,3.53
2024-04-25T09:27:20.026Z,3.67
2024-04-25T09:29:47.043Z,3.65
2024-04-25T09:32:19.845Z,3.72
2024-04-25T09:34:48.610Z,4.30
2024-04-25T09:37:16.902Z,4.45
2024-04-25T09:39:48.420Z,4.50
2024-04-25T09:42:21.731Z,4.20
2024-04-25T09:44:48.895Z,4.90
2024-04-25T09:47:28.598Z,4.22
2024-04-25T09:50:12.715Z,4.90
2024-04-25T09:52:45.271Z,4.70
2024-04-25T09:55:23.612Z,5.05
2024-04-25T10:01:40.786Z,4.68
2024-04-25T10:04:08.719Z,4.60
2024-04-25T10:06:39.449Z,4.63
2024-04-25T10:09:09.705Z,4.88
2024-04-25T10:11:38.488Z,4.68
2024-04-25T10:14:05.778Z,3.38
2024-04-25T10:16:42.107Z,2.15
2024-04-25T10:19:09.568Z,2.58
2024-04-25T10:21:47.149Z,1.75
2024-04-25T10:24:17.324Z,2.60
2024-04-25T10:26:50.153Z,3.05
2024-04-25T10:29:30.269Z,2.97
2024-04-25T10:31:57.226Z,3.47
2024-04-25T10:34:26.541Z,3.80
2024-04-25T10:36:53.631Z,3.35
2024-04-25T10:39:21.624Z,3.65
2024-04-25T10:41:48.768Z,4.03
2024-04-25T10:44:15.829Z,3.83
2024-04-25T10:46:46.098Z,3.53
2024-04-25T10:49:14.339Z,3.10
2024-04-25T10:51:41.953Z,3.90
2024-04-25T10:54:12.907Z,2.88
2024-04-25T10:56:42.120Z,3.03
2024-04-25T10:59:10.036Z,3.38
2024-04-25T11:01:42.208Z,4.10
2024-04-25T11:04:09.063Z,3.22
2024-04-25T11:06:38.955Z,3.00
2024-04-25T11:09:12.919Z,3.30
2024-04-25T11:11:39.983Z,3.38
2024-04-25T11:14:08.194Z,2.58
2024-04-25T11:16:39.671Z,2.78
2024-04-25T11:19:14.069Z,3.03
2024-04-25T11:21:49.016Z,2.88
2024-04-25T11:24:20.922Z,2.80
2024-04-25T11:26:48.909Z,2.67
2024-04-25T11:29:17.373Z,3.20
2024-04-25T11:31:45.672Z,3.25
2024-04-25T11:34:20.149Z,2.60
2024-04-25T11:37:04.396Z,2.85
2024-04-25T11:39:34.127Z,3.15
2024-04-25T11:42:03.763Z,2.70
2024-04-25T11:44:32.682Z,3.28
2024-04-25T11:47:03.320Z,2.75
2024-04-25T11:49:30.641Z,3.08
2024-04-25T11:51:57.535Z,3.55
2024-04-25T11:54:24.584Z,3.40
2024-04-25T11:56:51.623Z,3.28
2024-04-25T11:59:18.580Z,3.28
2024-04-25T12:01:46.480Z,3.10
2024-04-25T12:04:17.186Z,3.42
2024-04-25T12:06:46.472Z,2.20
2024-04-25T12:09:13.327Z,2.03
2024-04-25T12:11:43.433Z,2.15
2024-04-25T12:14:12.074Z,1.90
2024-04-25T12:16:41.689Z,2.20
2024-04-25T12:19:09.923Z,1.60
2024-04-25T12:21:37.799Z,1.80
2024-04-25T12:24:04.866Z,1.30
2024-04-25T12:26:31.784Z,0.98
2024-04-25T12:28:58.671Z,1.30
2024-04-25T12:31:28.348Z,0.93
2024-04-25T12:33:56.567Z,0.88
2024-04-25T12:36:23.656Z,1.10
2024-04-25T12:38:50.676Z,0.98
2024-04-25T12:41:17.850Z,1.17
2024-04-25T12:43:45.950Z,0.93
2024-04-25T12:46:12.847Z,0.90
2024-04-25T12:48:39.861Z,1.30
2024-04-25T12:51:06.886Z,1.30
2024-04-25T12:53:33.902Z,1.00
2024-04-25T12:56:00.990Z,1.02
2024-04-25T12:58:27.948Z,1.00
2024-04-25T13:00:54.885Z,1.38
2024-04-25T13:03:26.883Z,1.13
2024-04-25T13:05:55.582Z,1.40
2024-04-25T13:08:22.483Z,1.30
2024-04-25T13:10:49.426Z,1.27
2024-04-25T13:13:21.060Z,1.25
2024-04-25T13:15:47.960Z,1.38
2024-04-25T13:18:19.346Z,1.27
2024-04-25T13:20:46.789Z,1.35
2024-04-25T13:23:13.806Z,1.50
2024-04-25T13:25:40.793Z,1.50
2024-04-25T13:28:07.678Z,1.55
2024-04-25T13:30:34.627Z,1.33
2024-04-25T13:33:01.748Z,1.40
2024-04-25T13:35:28.846Z,1.50
2024-04-25T13:37:58.715Z,1.65
2024-04-25T13:40:27.222Z,1.80
2024-04-25T13:42:55.169Z,1.27
2024-04-25T13:45:22.143Z,1.40
2024-04-25T13:47:49.370Z,1.23
2024-04-25T13:50:18.089Z,1.50
2024-04-25T13:52:46.934Z,0.98
2024-04-25T13:55:14.060Z,1.40
2024-04-25T13:57:42.441Z,1.40
2024-04-25T14:00:10.168Z,1.00
2024-04-25T14:02:37.115Z,1.30
2024-04-25T14:05:04.306Z,1.15
2024-04-25T14:07:31.245Z,1.15
2024-04-25T14:09:58.221Z,1.30
2024-04-25T14:12:29.351Z,1.10
2024-04-25T14:14:56.893Z,1.27
2024-04-25T14:17:23.908Z,1.00
2024-04-25T14:19:50.917Z,0.90
2024-04-25T14:22:17.826Z,0.90
2024-04-25T14:24:47.431Z,0.80
2024-04-25T14:27:33.338Z,1.00
2024-04-25T14:30:00.236Z,0.90
2024-04-25T14:32:27.458Z,1.08
2024-04-25T14:34:56.666Z,0.70
2024-04-25T14:37:24.752Z,0.93
2024-04-25T14:39:52.107Z,0.70
2024-04-25T14:42:19.519Z,0.55
2024-04-25T14:44:47.873Z,0.90
2024-04-25T14:47:15.014Z,0.63
2024-04-25T14:49:41.948Z,0.70
2024-04-25T14:52:08.828Z,0.80
2024-04-25T14:54:35.772Z,1.02
2024-04-25T14:57:02.790Z,0.70
2024-04-25T14:59:31.070Z,0.90
2024-04-25T15:01:58.240Z,0.80
2024-04-25T15:04:25.298Z,0.80
2024-04-25T15:06:52.405Z,0.80
2024-04-25T15:09:20.465Z,0.80
2024-04-25T15:12:07.190Z,0.80
2024-04-25T15:14:36.383Z,0.75
2024-04-25T15:17:07.926Z,0.70
2024-04-25T15:19:42.618Z,0.90
2024-04-25T15:22:10.487Z,0.80
2024-04-25T15:24:38.244Z,0.60
2024-04-25T15:27:10.308Z,0.77
2024-04-25T15:29:37.241Z,0.63
2024-04-25T15:32:04.379Z,0.70
2024-04-25T15:34:31.355Z,0.70
2024-04-25T15:36:58.526Z,0.68
2024-04-25T15:39:25.732Z,0.88
2024-04-25T15:41:52.903Z,1.20
2024-04-25T15:44:20.031Z,1.83
2024-04-25T15:46:47.070Z,1.60
2024-04-25T15:49:15.060Z,1.50
2024-04-25T15:51:42.772Z,1.40
2024-04-25T15:54:12.720Z,1.40
2024-04-25T15:56:39.857Z,1.30
2024-04-25T15:59:08.082Z,1.45
2024-04-25T16:01:35.316Z,1.17
2024-04-25T16:04:02.417Z,1.40
2024-04-25T16:06:31.379Z,1.48
2024-04-25T16:08:58.484Z,1.67
2024-04-25T16:11:26.502Z,1.60
2024-04-25T16:13:53.686Z,2.00
2024-04-25T16:16:22.969Z,1.38
2024-04-25T16:18:51.329Z,1.20
2024-04-25T16:21:18.818Z,1.15
2024-04-25T16:23:46.038Z,2.13
2024-04-25T16:26:13.638Z,1.80
2024-04-25T16:28:40.729Z,1.40
2024-04-25T16:31:11.722Z,1.60
2024-04-25T16:33:39.124Z,1.27
2024-04-25T16:36:13.203Z,1.20
2024-04-25T16:38:40.289Z,1.00
2024-04-25T16:41:07.561Z,1.10
2024-04-25T16:43:37.435Z,1.20
2024-04-25T16:46:04.669Z,1.33
2024-04-25T16:48:32.273Z,1.52
2024-04-25T16:50:59.322Z,1.10
2024-04-25T16:53:26.595Z,1.40
2024-04-25T16:55:53.727Z,1.40
2024-04-25T16:58:20.904Z,1.70
2024-04-25T17:00:49.908Z,1.65
2024-04-25T17:03:17.271Z,1.60
2024-04-25T17:05:49.169Z,1.10
2024-04-25T17:08:17.840Z,1.15
2024-04-25T17:10:45.275Z,1.30
2024-04-25T17:13:12.915Z,1.10
2024-04-25T17:15:40.271Z,1.30
2024-04-25T17:18:07.691Z,1.30
2024-04-25T17:20:35.659Z,1.40
2024-04-25T17:23:03.056Z,1.40
2024-04-25T17:25:30.220Z,1.50
2024-04-25T17:27:57.186Z,1.30
2024-04-25T17:30:24.235Z,1.20
2024-04-25T17:32:51.237Z,1.30
2024-04-25T17:35:18.195Z,1.52
2024-04-25T17:37:45.192Z,1.30
2024-04-25T17:40:12.826Z,1.60
2024-04-25T17:42:39.745Z,1.45
2024-04-25T17:45:07.920Z,1.50
2024-04-25T17:50:36.270Z,1.50
2024-04-25T17:53:05.362Z,1.85
2024-04-25T17:55:32.232Z,1.98
2024-04-25T17:57:59.162Z,1.88
2024-04-25T18:00:26.076Z,2.10
2024-04-25T18:02:56.803Z,2.38
2024-04-25T18:05:23.998Z,2.35
2024-04-25T18:07:50.910Z,2.13
2024-04-25T18:10:17.857Z,1.85
2024-04-25T18:12:44.913Z,2.55
2024-04-25T18:15:11.857Z,2.60
2024-04-25T18:17:40.141Z,2.33
2024-04-25T18:20:07.543Z,2.28
2024-04-25T18:22:34.868Z,2.40
2024-04-25T18:25:01.745Z,2.38
2024-04-25T18:27:28.959Z,2.50
2024-04-25T18:29:55.878Z,2.35
2024-04-25T18:32:22.842Z,2.92
2024-04-25T18:34:49.751Z,2.70
2024-04-25T18:37:16.737Z,2.53
2024-04-25T18:39:43.709Z,2.50
2024-04-25T18:42:10.584Z,2.95
2024-04-25T18:44:37.674Z,2.50
2024-04-25T18:47:05.506Z,2.20
2024-04-25T18:49:32.985Z,2.60
2024-04-25T18:52:00.507Z,2.33
2024-04-25T18:54:27.968Z,2.50
2024-04-25T18:56:55.711Z,2.45
2024-04-25T18:59:22.991Z,2.70
2024-04-25T19:01:50.005Z,2.28
2024-04-25T19:04:21.478Z,2.70
2024-04-25T19:06:52.310Z,2.92
2024-04-25T19:09:22.810Z,2.88
2024-04-25T19:11:50.009Z,3.30
2024-04-25T19:14:17.669Z,3.08
2024-04-25T19:16:44.687Z,2.78
2024-04-25T19:19:12.458Z,3.15
2024-04-25T19:21:46.002Z,3.30
2024-04-25T19:24:14.438Z,3.75
2024-04-25T19:26:42.616Z,5.35
2024-04-25T19:29:09.672Z,16.38
2024-04-25T19:31:44.038Z,34.90
2024-04-25T19:34:17.663Z,32.85
2024-04-25T19:36:46.080Z,14.45
2024-04-25T19:39:13.063Z,5.65
2024-04-25T19:41:47.728Z,4.18
2024-04-25T19:44:15.852Z,4.72
2024-04-25T19:46:43.354Z,3.63
2024-04-25T19:49:10.304Z,3.30
2024-04-25T19:51:41.356Z,3.60
2024-04-25T19:54:08.409Z,5.18
2024-04-25T19:56:35.318Z,7.93
2024-04-25T19:59:02.284Z,9.63
2024-04-25T20:01:30.173Z,10.18
2024-04-25T20:03:57.177Z,7.22
2024-04-25T20:06:25.715Z,11.50
2024-04-25T20:08:53.077Z,19.83
2024-04-25T20:11:21.940Z,14.63
2024-04-25T20:13:48.980Z,12.10
2024-04-25T20:16:19.848Z,22.65
2024-04-25T20:19:05.643Z,18.42
2024-04-25T20:21:34.046Z,11.95
2024-04-25T20:24:04.911Z,14.85
2024-04-25T20:26:32.601Z,8.38
2024-04-25T20:28:59.918Z,9.13
2024-04-25T20:31:27.192Z,22.42
2024-04-25T20:33:54.663Z,19.92
2024-04-25T20:36:22.681Z,20.15
2024-04-25T20:38:51.431Z,23.52
2024-04-25T20:41:20.487Z,13.07
2024-04-25T20:43:47.708Z,13.43
2024-04-25T20:46:22.718Z,12.13
2024-04-25T20:48:51.859Z,10.73
2024-04-25T20:51:19.352Z,10.07
2024-04-25T20:53:46.301Z,9.98
2024-04-25T20:56:13.276Z,10.20
2024-04-25T20:58:41.294Z,8.13
2024-04-25T21:01:08.378Z,4.05
2024-04-25T21:03:35.646Z,3.83
2024-04-25T21:06:02.718Z,7.18
2024-04-25T21:08:32.584Z,5.88
2024-04-25T21:10:59.684Z,4.38
2024-04-25T21:13:30.986Z,4.35
2024-04-25T21:15:58.170Z,6.22
2024-04-25T21:18:25.286Z,5.25
2024-04-25T21:20:52.414Z,3.80
2024-04-25T21:23:19.419Z,4.93
2024-04-25T21:25:51.901Z,8.88
2024-04-25T21:28:25.738Z,7.30
2024-04-25T21:30:52.813Z,6.47
2024-04-25T21:33:19.791Z,3.80
2024-04-25T21:35:46.832Z,5.43
2024-04-25T21:38:13.807Z,2.70
2024-04-25T21:40:40.702Z,4.18
2024-04-25T21:43:08.438Z,5.05
2024-04-25T21:45:35.336Z,2.70
2024-04-25T21:48:02.391Z,3.58
2024-04-25T21:50:29.618Z,3.25
2024-04-25T21:52:56.514Z,2.63
2024-04-25T21:55:23.573Z,2.83
2024-04-25T21:57:50.527Z,3.30
2024-04-25T22:00:17.601Z,3.90
2024-04-25T22:02:44.501Z,3.65
2024-04-25T22:05:11.391Z,4.07
2024-04-25T22:07:38.351Z,4.90
2024-04-25T22:10:05.524Z,4.38
2024-04-25T22:12:33.293Z,4.10
2024-04-25T22:15:00.312Z,3.08
2024-04-25T22:17:27.282Z,2.60
2024-04-25T22:19:54.164Z,2.88
2024-04-25T22:22:21.039Z,2.70
2024-04-25T22:24:47.926Z,3.53
2024-04-25T22:27:14.803Z,3.42
2024-04-25T22:29:41.793Z,4.57
2024-04-25T22:32:09.003Z,5.22
2024-04-25T22:34:37.321Z,5.00
2024-04-25T22:37:04.519Z,5.03
2024-04-25T22:39:31.509Z,4.90
2024-04-25T22:41:58.405Z,5.10
2024-04-25T22:44:25.302Z,7.35
2024-04-25T22:46:52.226Z,6.78
2024-04-25T22:49:19.171Z,6.03
2024-04-25T22:51:46.116Z,7.40
2024-04-25T22:54:13.598Z,7.60
2024-04-25T22:56:40.555Z,7.38
2024-04-25T22:59:07.451Z,5.93
2024-04-25T23:01:34.374Z,6.72
2024-04-25T23:04:01.377Z,7.22
2024-04-25T23:06:28.344Z,6.72
2024-04-25T23:08:55.295Z,6.70
2024-04-25T23:11:22.322Z,6.32
2024-04-25T23:13:49.248Z,7.65
2024-04-25T23:16:16.271Z,7.07
2024-04-25T23:18:43.402Z,6.85
2024-04-25T23:21:10.524Z,7.60
2024-04-25T23:23:37.418Z,7.40
2024-04-25T23:26:04.418Z,9.10
2024-04-25T23:28:31.267Z,7.78
2024-04-25T23:30:58.123Z,6.55
2024-04-25T23:33:25.144Z,6.20
2024-04-25T23:35:52.164Z,6.45
2024-04-25T23:38:19.108Z,6.05
2024-04-25T23:40:45.973Z,6.05
2024-04-25T23:43:12.846Z,6.03
2024-04-25T23:45:39.748Z,6.00
2024-04-25T23:48:07.409Z,6.43
2024-04-25T23:50:34.408Z,5.18
2024-04-25T23:53:01.422Z,5.40
2024-04-25T23:55:28.375Z,4.82
2024-04-25T23:57:55.292Z,4.95
